Time;durP1;ratioP1;P1;durP2;ratioP2;P2;SDS_P1;SDS_P2;PMS_P1;PMS_P2;Temp;Humidity;BMP_temperature;BMP_pressure;BME280_temperature;BME280_humidity;BME280_pressure;Samples;Min_cycle;Max_cycle;Signal;HPM_P1;HPM_P2
2022/11/27 00:00:19;;;;;;;16.77;5.60;;;;;;;6.34;100.00;102561.16;5058998;28;20032;-76
2022/11/27 00:02:45;;;;;;;22.98;5.65;;;;;;;6.34;100.00;102555.69;5059826;28;20056;-75
2022/11/27 00:05:10;;;;;;;25.38;5.70;;;;;;;6.38;100.00;102549.00;5037862;28;20351;-77
2022/11/27 00:07:36;;;;;;;19.00;5.70;;;;;;;6.35;100.00;102537.53;5058997;28;20641;-78
2022/11/27 00:10:02;;;;;;;14.38;5.05;;;;;;;6.29;100.00;102529.84;5061394;28;20032;-76
2022/11/27 00:12:27;;;;;;;24.73;4.90;;;;;;;6.28;100.00;102519.97;5033413;28;20036;-75
2022/11/27 00:14:52;;;;;;;19.15;6.65;;;;;;;6.31;100.00;102511.56;5038809;28;20041;-77
2022/11/27 00:17:18;;;;;;;20.75;6.32;;;;;;;6.33;100.00;102510.44;5057922;28;20116;-78
2022/11/27 00:19:43;;;;;;;15.90;6.03;;;;;;;6.33;100.00;102512.28;5054542;28;20138;-78
2022/11/27 00:22:09;;;;;;;18.63;5.15;;;;;;;6.30;100.00;102499.81;5055661;28;20029;-77
2022/11/27 00:24:35;;;;;;;21.20;6.55;;;;;;;6.27;100.00;102491.91;5050306;28;20059;-78
2022/11/27 00:27:00;;;;;;;27.38;5.75;;;;;;;6.30;100.00;102493.50;5033727;28;20504;-77
2022/11/27 00:29:28;;;;;;;19.13;5.22;;;;;;;6.30;100.00;102490.78;5058069;28;20041;-79
2022/11/27 00:31:55;;;;;;;21.48;6.18;;;;;;;6.30;100.00;102494.34;5053442;28;20037;-78
2022/11/27 00:34:21;;;;;;;22.90;6.45;;;;;;;6.20;100.00;102487.13;5052978;28;20025;-77
2022/11/27 00:36:46;;;;;;;12.52;4.75;;;;;;;6.20;100.00;102490.69;5034247;28;20039;-77
2022/11/27 00:39:12;;;;;;;24.05;5.40;;;;;;;6.21;100.00;102491.56;5052871;28;20041;-77
2022/11/27 00:41:37;;;;;;;18.00;5.13;;;;;;;6.22;100.00;102482.41;5038855;28;20115;-77
2022/11/27 00:44:04;;;;;;;15.48;5.60;;;;;;;6.18;100.00;102475.47;5041629;28;20040;-76
2022/11/27 00:46:32;;;;;;;18.88;6.05;;;;;;;6.22;100.00;102474.22;5059081;28;20071;-78
2022/11/27 00:48:59;;;;;;;17.20;5.40;;;;;;;6.09;100.00;102476.28;5020949;28;20033;-77
2022/11/27 00:51:25;;;;;;;15.43;5.20;;;;;;;6.12;100.00;102460.56;5058164;28;20491;-77
2022/11/27 00:53:52;;;;;;;13.00;5.55;;;;;;;6.12;100.00;102460.56;5061925;28;20361;-77
2022/11/27 00:56:23;;;;;;;22.33;5.45;;;;;;;6.22;100.00;102457.91;5056058;28;20048;-78
2022/11/27 00:58:49;;;;;;;20.08;5.43;;;;;;;6.17;100.00;102471.03;5058758;28;20048;-77
2022/11/27 01:01:23;;;;;;;23.33;4.93;;;;;;;6.13;100.00;102477.72;5049723;28;20029;-77
2022/11/27 01:03:49;;;;;;;24.42;6.50;;;;;;;6.08;100.00;102482.72;5057583;28;20029;-78
2022/11/27 01:06:16;;;;;;;19.85;5.38;;;;;;;6.18;100.00;102475.47;5035401;28;20043;-76
2022/11/27 01:08:42;;;;;;;16.27;4.90;;;;;;;6.17;100.00;102463.75;5029568;28;20495;-77
2022/11/27 01:11:14;;;;;;;16.27;6.25;;;;;;;6.17;100.00;102469.19;5053712;28;20086;-76
2022/11/27 01:13:41;;;;;;;12.60;4.95;;;;;;;6.29;100.00;102468.16;5052566;28;20028;-76
2022/11/27 01:16:14;;;;;;;18.98;4.88;;;;;;;6.24;100.00;102450.50;5055717;28;20051;-76
2022/11/27 01:18:42;;;;;;;15.65;4.90;;;;;;;6.24;100.00;102445.91;5049219;28;20031;-77
2022/11/27 01:21:08;;;;;;;16.30;4.90;;;;;;;6.30;100.00;102436.38;5039290;28;20115;-76
2022/11/27 01:23:34;;;;;;;13.73;5.03;;;;;;;6.21;100.00;102437.16;5058451;28;20033;-76
2022/11/27 01:26:04;;;;;;;13.20;4.30;;;;;;;6.18;100.00;102440.13;5031318;28;20043;-77
2022/11/27 01:28:30;;;;;;;14.68;5.07;;;;;;;6.17;100.00;102436.56;5052719;28;20112;-75
2022/11/27 01:30:56;;;;;;;13.73;4.80;;;;;;;6.22;100.00;102433.44;5050598;28;20052;-78
2022/11/27 01:33:22;;;;;;;14.27;4.80;;;;;;;6.28;100.00;102420.19;5037178;28;20112;-75
2022/11/27 01:35:58;;;;;;;19.13;5.18;;;;;;;6.33;100.00;102411.59;5036939;28;20035;-74
2022/11/27 01:38:24;;;;;;;11.95;4.75;;;;;;;6.28;100.00;102408.41;5040940;28;20131;-76
2022/11/27 01:41:00;;;;;;;19.27;5.25;;;;;;;6.17;100.00;102412.06;5056214;28;20033;-78
2022/11/27 01:43:48;;;;;;;17.83;4.88;;;;;;;6.30;100.00;102401.84;5056623;28;20029;-76
2022/11/27 01:46:35;;;;;;;24.23;5.03;;;;;;;6.33;100.00;102398.00;5050871;28;20048;-76
2022/11/27 01:49:10;;;;;;;13.50;4.47;;;;;;;6.28;100.00;102400.25;5057783;28;20030;-76
2022/11/27 01:51:40;;;;;;;15.27;4.72;;;;;;;6.28;100.00;102389.38;5060818;28;20035;-77
2022/11/27 01:54:09;;;;;;;16.15;4.45;;;;;;;6.24;100.00;102385.22;5050894;28;20507;-75
2022/11/27 01:56:37;;;;;;;18.35;4.75;;;;;;;6.22;100.00;102382.63;5048781;28;20025;-76
2022/11/27 01:59:03;;;;;;;13.20;4.68;;;;;;;6.22;100.00;102374.44;5052459;28;20040;-76
2022/11/27 02:01:28;;;;;;;8.27;3.53;;;;;;;6.22;100.00;102379.88;5040760;28;20032;-76
2022/11/27 02:03:59;;;;;;;21.15;5.30;;;;;;;6.25;100.00;102386.94;5055284;28;20037;-77
2022/11/27 02:06:25;;;;;;;13.00;3.97;;;;;;;6.24;100.00;102377.03;5033999;28;20476;-78
2022/11/27 02:08:51;;;;;;;13.50;4.70;;;;;;;6.15;100.00;102375.09;5031795;28;20170;-78
2022/11/27 02:11:35;;;;;;;17.40;5.37;;;;;;;6.16;100.00;102355.06;5054799;28;20078;-74
2022/11/27 02:14:21;;;;;;;16.17;5.32;;;;;;;6.22;100.00;102351.81;5051464;28;20073;-77
2022/11/27 02:16:52;;;;;;;18.00;4.85;;;;;;;6.22;100.00;102360.84;5060131;28;20044;-76
2022/11/27 02:19:39;;;;;;;16.70;5.60;;;;;;;6.25;100.00;102354.28;5060504;28;20033;-77
2022/11/27 02:22:23;;;;;;;22.35;5.75;;;;;;;6.32;100.00;102369.06;5051063;28;20400;-77
2022/11/27 02:25:05;;;;;;;13.15;4.00;;;;;;;6.23;100.00;102367.13;5036463;28;20599;-78
2022/11/27 02:27:51;;;;;;;14.52;4.05;;;;;;;6.30;100.00;102369.19;5036118;28;20034;-78
2022/11/27 02:30:17;;;;;;;17.50;5.05;;;;;;;6.35;100.00;102369.66;5054383;28;20116;-77
2022/11/27 02:32:52;;;;;;;20.80;4.75;;;;;;;6.36;100.00;102371.38;5062477;28;20040;-78
2022/11/27 02:35:25;;;;;;;17.33;4.50;;;;;;;6.37;100.00;102361.38;5059396;28;20062;-77
2022/11/27 02:38:08;;;;;;;17.55;4.90;;;;;;;6.29;100.00;102370.19;5044242;28;20032;-78
2022/11/27 02:40:41;;;;;;;14.57;4.45;;;;;;;6.41;100.00;102371.84;5059934;28;20036;-77
2022/11/27 02:43:09;;;;;;;14.13;4.38;;;;;;;6.48;100.00;102374.91;5053199;28;20029;-76
2022/11/27 02:45:39;;;;;;;23.73;4.80;;;;;;;6.48;100.00;102377.63;5060221;28;20361;-78
2022/11/27 02:48:05;;;;;;;15.07;4.05;;;;;;;6.49;99.43;102371.19;5058610;28;20037;-76
2022/11/27 02:50:33;;;;;;;13.77;3.97;;;;;;;6.52;99.20;102360.03;5057488;28;20047;-76
2022/11/27 02:53:03;;;;;;;15.63;3.47;;;;;;;6.49;98.98;102358.44;5058158;28;20056;-77
2022/11/27 02:55:32;;;;;;;16.27;4.30;;;;;;;6.51;99.62;102361.03;5055439;28;20032;-76
2022/11/27 02:58:01;;;;;;;16.33;4.25;;;;;;;6.55;98.21;102351.59;5037945;28;20072;-77
2022/11/27 03:00:28;;;;;;;14.15;4.60;;;;;;;6.59;98.37;102347.59;5059752;28;20442;-76
2022/11/27 03:03:00;;;;;;;15.63;4.05;;;;;;;6.57;98.94;102358.63;5043132;28;20028;-76
2022/11/27 03:05:31;;;;;;;16.83;4.45;;;;;;;6.61;98.62;102348.31;5059435;28;20078;-75
2022/11/27 03:08:21;;;;;;;11.40;3.42;;;;;;;6.57;98.77;102352.34;5055136;28;20497;-77
2022/11/27 03:11:02;;;;;;;9.73;3.78;;;;;;;6.61;98.33;102348.31;5057372;28;20079;-75
2022/11/27 03:13:29;;;;;;;11.98;4.53;;;;;;;6.63;97.93;102352.63;5054903;28;20109;-76
2022/11/27 03:16:09;;;;;;;15.98;3.70;;;;;;;6.61;98.26;102348.31;5060227;28;20033;-76
2022/11/27 03:18:55;;;;;;;15.80;4.03;;;;;;;6.58;98.02;102348.59;5061637;28;20029;-78
2022/11/27 03:21:35;;;;;;;12.93;3.60;;;;;;;6.61;97.86;102340.16;5056490;28;20124;-77
2022/11/27 03:24:01;;;;;;;10.20;3.55;;;;;;;6.58;98.01;102345.88;5058963;28;20078;-76
2022/11/27 03:26:26;;;;;;;12.30;4.15;;;;;;;6.63;97.55;102340.91;5055384;28;20040;-77
2022/11/27 03:28:54;;;;;;;17.23;4.05;;;;;;;6.57;97.57;102346.88;5034676;28;20047;-78
2022/11/27 03:31:22;;;;;;;18.40;3.25;;;;;;;6.61;97.17;102340.16;5050782;28;20368;-77
2022/11/27 03:33:48;;;;;;;11.05;3.22;;;;;;;6.65;96.59;102337.03;5057349;28;20033;-75
2022/11/27 03:36:16;;;;;;;11.90;3.63;;;;;;;6.61;96.97;102337.44;5056527;28;20472;-77
2022/11/27 03:38:43;;;;;;;18.55;4.18;;;;;;;6.69;96.67;102340.34;5060155;28;20044;-78
2022/11/27 03:41:13;;;;;;;;;;;;;;;6.69;96.08;102335.78;5047772;28;20032;-76
2022/11/27 03:43:55;;;;;;;14.90;3.38;;;;;;;6.69;96.14;102340.34;5057127;28;19963;-77
2022/11/27 03:46:46;;;;;;;10.43;3.78;;;;;;;6.70;96.08;102329.34;5035866;28;20031;-77
2022/11/27 03:49:40;;;;;;;8.23;3.00;;;;;;;6.67;96.23;102336.91;5008512;28;20452;-77
2022/11/27 03:52:22;;;;;;;7.55;3.25;;;;;;;6.70;95.99;102339.34;5050489;28;20016;-76
2022/11/27 03:55:12;;;;;;;12.32;3.38;;;;;;;6.67;95.61;102345.94;5027842;28;20017;-76
2022/11/27 03:57:45;;;;;;;10.02;3.45;;;;;;;6.75;95.35;102339.81;5052547;28;20029;-76
2022/11/27 04:00:11;;;;;;;6.68;2.75;;;;;;;6.72;94.88;102335.50;5051040;28;20032;-76
2022/11/27 04:02:50;;;;;;;9.15;3.10;;;;;;;6.70;95.10;102334.78;5058434;28;20029;-75
2022/11/27 04:05:17;;;;;;;10.38;3.10;;;;;;;6.70;95.73;102336.63;5056413;28;20029;-76
2022/11/27 04:07:42;;;;;;;13.45;3.72;;;;;;;6.74;95.61;102351.69;5023835;28;20502;-76
2022/11/27 04:10:10;;;;;;;9.05;2.75;;;;;;;6.80;94.27;102332.97;5037482;28;20069;-75
2022/11/27 04:12:35;;;;;;;9.93;2.80;;;;;;;6.71;95.13;102341.06;5051847;28;20029;-76
2022/11/27 04:15:01;;;;;;;9.30;3.03;;;;;;;6.79;94.74;102341.25;5035460;28;20116;-76
2022/11/27 04:17:26;;;;;;;9.25;3.05;;;;;;;6.75;95.20;102340.69;5034229;28;20397;-77
2022/11/27 04:19:53;;;;;;;10.75;3.38;;;;;;;6.76;95.55;102345.13;5060277;28;20485;-77
2022/11/27 04:22:20;;;;;;;12.13;3.15;;;;;;;6.67;97.12;102340.47;5055278;28;20043;-77
2022/11/27 04:24:45;;;;;;;14.15;3.47;;;;;;;6.70;96.37;102334.78;5065217;28;20032;-76
2022/11/27 04:27:10;;;;;;;10.55;3.13;;;;;;;6.61;96.90;102337.44;5052230;28;20086;-76
2022/11/27 04:29:36;;;;;;;5.55;2.80;;;;;;;6.65;98.06;102317.13;5054381;28;20029;-76
2022/11/27 04:32:03;;;;;;;12.32;2.80;;;;;;;6.68;97.56;102314.97;5039265;28;20029;-76
2022/11/27 04:34:28;;;;;;;12.77;3.28;;;;;;;6.63;98.20;102319.13;5037924;28;20037;-76
2022/11/27 04:36:55;;;;;;;5.88;2.63;;;;;;;6.55;99.12;102316.19;5053230;28;20765;-77
2022/11/27 04:39:20;;;;;;;9.05;2.63;;;;;;;6.42;100.00;102312.84;5039193;28;20057;-78
2022/11/27 04:41:46;;;;;;;10.30;3.20;;;;;;;6.52;99.62;102314.59;5049469;28;20127;-76
2022/11/27 04:44:11;;;;;;;9.55;2.95;;;;;;;6.45;99.20;102307.13;5051312;28;20112;-75
2022/11/27 04:46:37;;;;;;;5.97;2.83;;;;;;;6.46;99.86;102297.97;5037158;28;20039;-77
2022/11/27 04:49:03;;;;;;;11.02;3.00;;;;;;;6.40;100.00;102302.09;5060883;28;20044;-77
2022/11/27 04:51:28;;;;;;;9.25;3.00;;;;;;;6.42;100.00;102300.09;5056331;28;20606;-76
2022/11/27 04:53:54;;;;;;;10.05;3.05;;;;;;;6.40;100.00;102301.25;5036803;28;20029;-78
2022/11/27 04:56:19;;;;;;;8.38;3.33;;;;;;;6.38;100.00;102292.34;5054754;28;20030;-77
2022/11/27 04:58:44;;;;;;;8.98;3.50;;;;;;;6.32;100.00;102296.47;5058204;28;20107;-78
2022/11/27 05:01:10;;;;;;;10.32;2.83;;;;;;;6.29;100.00;102293.13;5060316;28;20075;-76
2022/11/27 05:03:35;;;;;;;10.77;2.65;;;;;;;6.31;100.00;102283.84;5058045;28;20036;-76
2022/11/27 05:06:01;;;;;;;10.77;3.33;;;;;;;6.31;100.00;102285.72;5056807;28;20035;-77
2022/11/27 05:08:29;;;;;;;10.27;3.38;;;;;;;6.35;100.00;102288.03;5058305;28;20056;-78
2022/11/27 05:11:03;;;;;;;9.85;3.25;;;;;;;6.32;100.00;102290.16;5051891;28;20458;-78
2022/11/27 05:13:30;;;;;;;9.13;2.97;;;;;;;6.32;100.00;102276.56;5034067;28;20040;-78
2022/11/27 05:15:56;;;;;;;11.05;3.13;;;;;;;6.34;100.00;102283.59;5057387;28;20407;-78
2022/11/27 05:18:21;;;;;;;14.27;3.95;;;;;;;6.39;100.00;102270.44;5057419;28;20040;-78
2022/11/27 05:20:47;;;;;;;8.07;3.10;;;;;;;6.41;100.00;102270.31;5055819;28;20056;-75
2022/11/27 05:23:12;;;;;;;16.08;3.38;;;;;;;6.37;100.00;102267.00;5055333;28;20452;-78
2022/11/27 05:25:38;;;;;;;10.85;3.50;;;;;;;6.39;100.00;102265.00;5036713;28;20082;-78
2022/11/27 05:28:03;;;;;;;13.10;3.35;;;;;;;6.34;100.00;102277.28;5036429;28;20547;-78
2022/11/27 05:30:29;;;;;;;12.98;3.67;;;;;;;6.36;100.00;102267.13;5053684;28;20111;-77
2022/11/27 05:32:54;;;;;;;5.55;3.00;;;;;;;6.30;100.00;102256.78;5058120;28;20020;-77
2022/11/27 05:35:19;;;;;;;8.93;3.20;;;;;;;6.36;100.00;102261.69;5053686;28;20040;-78
2022/11/27 05:37:45;;;;;;;9.63;3.42;;;;;;;6.35;100.00;102255.38;5055264;28;20219;-76
2022/11/27 05:40:11;;;;;;;9.68;3.20;;;;;;;6.26;100.00;102258.06;5033338;28;20048;-77
2022/11/27 05:42:36;;;;;;;6.50;3.33;;;;;;;6.23;100.00;102247.44;5051822;28;20045;-76
2022/11/27 05:45:02;;;;;;;10.77;4.20;;;;;;;6.25;100.00;102248.19;5046063;28;20036;-76
2022/11/27 05:47:27;;;;;;;10.25;3.72;;;;;;;6.29;100.00;102245.03;5057050;28;20040;-78
2022/11/27 05:49:53;;;;;;;10.85;3.65;;;;;;;6.28;100.00;102247.88;5057526;28;20029;-79
2022/11/27 05:52:18;;;;;;;10.93;2.97;;;;;;;6.23;100.00;102237.41;5053527;28;20068;-75
2022/11/27 05:54:44;;;;;;;7.30;2.90;;;;;;;6.25;100.00;102232.69;5037530;28;20029;-78
2022/11/27 05:57:09;;;;;;;6.25;3.00;;;;;;;6.24;100.00;102241.03;5059365;28;20068;-76
2022/11/27 05:59:35;;;;;;;12.32;3.83;;;;;;;6.23;100.00;102239.25;5060241;28;20502;-78
2022/11/27 06:02:02;;;;;;;11.65;3.33;;;;;;;6.30;100.00;102243.19;5047315;28;20029;-77
2022/11/27 06:04:27;;;;;;;8.00;3.72;;;;;;;6.25;100.00;102232.69;5040727;28;20430;-76
2022/11/27 06:06:52;;;;;;;4.68;3.10;;;;;;;6.24;100.00;102230.13;5053739;28;20052;-78
2022/11/27 06:09:18;;;;;;;10.30;4.03;;;;;;;6.28;100.00;102221.56;5039605;28;20474;-78
2022/11/27 06:11:43;;;;;;;8.23;3.60;;;;;;;6.28;100.00;102226.13;5049190;28;20033;-77
2022/11/27 06:14:09;;;;;;;12.63;3.38;;;;;;;6.30;100.00;102221.44;5055085;28;20028;-77
2022/11/27 06:16:35;;;;;;;10.35;3.97;;;;;;;6.24;100.00;102224.69;5059321;28;20124;-76
2022/11/27 06:19:01;;;;;;;13.88;3.97;;;;;;;6.20;100.00;102220.50;5051990;28;20472;-75
2022/11/27 06:21:26;;;;;;;8.18;3.22;;;;;;;6.28;100.00;102215.25;5032471;28;20037;-76
2022/11/27 06:23:54;;;;;;;5.88;2.92;;;;;;;6.24;100.00;102224.69;5053260;28;20025;-77
2022/11/27 06:26:23;;;;;;;5.50;3.45;;;;;;;6.24;100.00;102216.53;5032828;28;20036;-77
2022/11/27 06:28:49;;;;;;;12.70;3.88;;;;;;;6.23;100.00;102201.19;5050328;28;20111;-76
2022/11/27 06:31:20;;;;;;;14.20;4.03;;;;;;;6.24;100.00;102205.66;5054733;28;20163;-76
2022/11/27 06:33:47;;;;;;;13.32;3.60;;;;;;;6.17;100.00;102196.28;5053660;28;20067;-77
2022/11/27 06:36:13;;;;;;;13.27;3.97;;;;;;;6.19;100.00;102194.31;5050852;28;20476;-76
2022/11/27 06:38:38;;;;;;;12.75;3.85;;;;;;;6.22;100.00;102199.47;5036616;28;20040;-78
2022/11/27 06:41:06;;;;;;;8.07;3.58;;;;;;;6.25;100.00;102193.75;5052763;28;20029;-74
2022/11/27 06:43:32;;;;;;;6.18;3.83;;;;;;;6.22;100.00;102191.31;5045851;28;20446;-77
2022/11/27 06:45:59;;;;;;;9.43;3.30;;;;;;;6.23;100.00;102193.91;5055359;28;20071;-78
2022/11/27 06:48:25;;;;;;;10.40;4.40;;;;;;;6.27;100.00;102189.91;5056260;28;20052;-77
2022/11/27 06:50:50;;;;;;;6.22;3.45;;;;;;;6.28;100.00;102190.75;5059380;28;20025;-77
2022/11/27 06:53:16;;;;;;;9.20;3.72;;;;;;;6.32;100.00;102192.22;5054112;28;20032;-77
2022/11/27 06:55:41;;;;;;;8.88;3.97;;;;;;;6.33;100.00;102183.03;5053018;28;20025;-77
2022/11/27 06:58:07;;;;;;;7.38;3.88;;;;;;;6.25;100.00;102186.44;5062345;28;20029;-76
2022/11/27 07:00:32;;;;;;;14.15;5.00;;;;;;;6.33;100.00;102185.75;5057736;28;20043;-76
2022/11/27 07:02:57;;;;;;;11.85;5.07;;;;;;;6.31;100.00;102179.59;5058912;28;20021;-78
2022/11/27 07:05:23;;;;;;;10.85;4.05;;;;;;;6.33;100.00;102177.59;5060867;28;20044;-77
2022/11/27 07:07:49;;;;;;;12.02;4.40;;;;;;;6.30;100.00;102159.69;5040121;28;20090;-77
2022/11/27 07:10:14;;;;;;;12.57;4.18;;;;;;;6.23;100.00;102144.06;5056703;28;20472;-74
2022/11/27 07:12:40;;;;;;;10.57;3.80;;;;;;;6.25;100.00;102155.69;5057118;28;20086;-75
2022/11/27 07:15:06;;;;;;;13.43;4.18;;;;;;;6.25;100.00;102140.19;5059080;28;20025;-76
2022/11/27 07:17:32;;;;;;;12.95;4.22;;;;;;;6.24;100.00;102149.34;5021024;28;20109;-75
2022/11/27 07:19:57;;;;;;;8.95;4.18;;;;;;;6.29;100.00;102148.94;5055616;28;20041;-78
2022/11/27 07:22:22;;;;;;;14.85;4.50;;;;;;;6.33;100.00;102136.78;5036555;28;20161;-78
2022/11/27 07:24:49;;;;;;;11.90;4.15;;;;;;;6.34;100.00;102136.66;5054114;28;20036;-77
2022/11/27 07:27:14;;;;;;;10.23;5.05;;;;;;;6.29;100.00;102132.63;5048413;28;20024;-76
2022/11/27 07:29:40;;;;;;;9.55;4.07;;;;;;;6.32;100.00;102129.63;5055986;28;20037;-77
2022/11/27 07:32:05;;;;;;;15.63;5.00;;;;;;;6.30;100.00;102129.75;5048976;28;20043;-76
2022/11/27 07:34:30;;;;;;;12.43;4.82;;;;;;;6.27;100.00;102130.06;5059350;28;20501;-77
2022/11/27 07:36:56;;;;;;;11.45;4.55;;;;;;;6.32;100.00;102119.63;5055927;28;20593;-78
2022/11/27 07:39:21;;;;;;;12.60;4.45;;;;;;;6.30;100.00;102131.63;5057867;28;20044;-77
2022/11/27 07:41:47;;;;;;;13.10;4.35;;;;;;;6.41;100.00;102126.09;5039725;28;20082;-77
2022/11/27 07:44:12;;;;;;;11.63;4.60;;;;;;;6.33;100.00;102131.34;5039294;28;20131;-77
2022/11/27 07:46:37;;;;;;;12.65;4.40;;;;;;;6.34;100.00;102135.78;5052407;28;20033;-76
2022/11/27 07:49:03;;;;;;;12.02;4.82;;;;;;;6.37;100.00;102121.91;5053294;28;20025;-75
2022/11/27 07:51:28;;;;;;;12.52;4.53;;;;;;;6.34;100.00;102122.19;5060364;28;20032;-75
2022/11/27 07:53:54;;;;;;;10.23;4.40;;;;;;;6.32;100.00;102130.50;5051924;28;20079;-77
2022/11/27 07:56:20;;;;;;;12.55;4.53;;;;;;;6.36;100.00;102126.47;5052898;28;20024;-76
2022/11/27 07:58:46;;;;;;;12.52;4.18;;;;;;;6.47;100.00;102128.25;5051911;28;21554;-76
2022/11/27 08:01:17;;;;;;;13.73;5.32;;;;;;;6.48;100.00;102124.50;5058699;28;20036;-76
2022/11/27 08:03:43;;;;;;;11.05;4.50;;;;;;;6.49;100.00;102118.06;5060207;28;20082;-77
2022/11/27 08:06:17;;;;;;;12.02;5.40;;;;;;;6.51;100.00;102119.66;5060511;28;20037;-76
2022/11/27 08:08:43;;;;;;;10.50;5.15;;;;;;;6.51;100.00;102118.81;5045130;28;20031;-77
2022/11/27 08:11:22;;;;;;;14.65;4.03;;;;;;;6.48;100.00;102119.06;5031588;28;20021;-75
2022/11/27 08:13:48;;;;;;;12.43;5.30;;;;;;;6.47;100.00;102125.53;5054267;28;20104;-78
2022/11/27 08:16:14;;;;;;;12.70;5.43;;;;;;;6.48;100.00;102119.06;5019653;28;20036;-77
2022/11/27 08:18:39;;;;;;;12.63;5.13;;;;;;;6.47;100.00;102107.31;5055382;28;20775;-77
2022/11/27 08:21:05;;;;;;;16.50;5.20;;;;;;;6.48;100.00;102109.06;5051507;28;20112;-77
2022/11/27 08:23:31;;;;;;;18.15;4.82;;;;;;;6.57;100.00;102116.38;5056881;28;20025;-75
2022/11/27 08:25:56;;;;;;;10.70;4.78;;;;;;;6.54;100.00;102113.06;5054559;28;20053;-76
2022/11/27 08:28:21;;;;;;;15.13;5.00;;;;;;;6.44;100.00;102113.06;5057196;28;20033;-76
2022/11/27 08:30:55;;;;;;;12.77;4.72;;;;;;;6.52;100.00;102110.47;5034902;28;20028;-77
2022/11/27 08:33:20;;;;;;;13.43;5.40;;;;;;;6.56;100.00;102108.38;5057930;28;20545;-75
2022/11/27 08:35:50;;;;;;;11.88;5.32;;;;;;;6.49;100.00;102118.94;5043623;28;20043;-76
2022/11/27 08:38:15;;;;;;;6.72;4.05;;;;;;;6.59;100.00;102111.66;5017514;28;20036;-77
2022/11/27 08:40:40;;;;;;;12.20;5.40;;;;;;;6.56;100.00;102102.91;5052171;28;20404;-76
2022/11/27 08:43:06;;;;;;;11.80;4.63;;;;;;;6.56;100.00;102111.91;5044957;28;20113;-78
2022/11/27 08:45:31;;;;;;;12.77;4.90;;;;;;;6.59;100.00;102108.06;5046607;28;20029;-76
2022/11/27 08:47:57;;;;;;;15.95;4.85;;;;;;;6.63;100.00;102110.34;5053372;28;20045;-77
2022/11/27 08:50:23;;;;;;;19.77;5.65;;;;;;;6.68;100.00;102110.78;5057572;28;20025;-75
2022/11/27 08:52:48;;;;;;;17.88;5.57;;;;;;;6.65;100.00;102112.94;5030309;28;20436;-77
2022/11/27 08:55:13;;;;;;;18.38;5.57;;;;;;;6.60;100.00;102113.38;5030031;28;20120;-77
2022/11/27 08:57:39;;;;;;;11.07;4.53;;;;;;;6.73;100.00;102113.09;5037022;28;20102;-75
2022/11/27 09:00:05;;;;;;;12.77;5.25;;;;;;;6.73;100.00;102107.66;5045425;28;20376;-77
2022/11/27 09:02:32;;;;;;;20.00;5.97;;;;;;;6.74;100.00;102114.81;5047455;28;20034;-76
2022/11/27 09:04:57;;;;;;;13.75;4.95;;;;;;;6.70;100.00;102102.47;5041961;28;20039;-78
2022/11/27 09:07:22;;;;;;;14.10;4.97;;;;;;;6.76;100.00;102100.06;5041860;28;20040;-77
2022/11/27 09:09:48;;;;;;;24.65;7.10;;;;;;;6.76;100.00;102105.50;5025216;28;20102;-77
2022/11/27 09:12:13;;;;;;;15.73;6.32;;;;;;;6.72;100.00;102095.91;5044242;28;20565;-77
2022/11/27 09:14:38;;;;;;;12.50;5.85;;;;;;;6.81;100.00;102105.94;5051136;28;20034;-77
2022/11/27 09:17:04;;;;;;;9.60;4.80;;;;;;;6.73;100.00;102102.22;5037220;28;20108;-76
2022/11/27 09:19:29;;;;;;;18.50;6.70;;;;;;;6.75;100.00;102100.19;5048100;28;20495;-76
2022/11/27 09:21:55;;;;;;;15.35;5.90;;;;;;;6.71;100.00;102099.63;5047808;28;20027;-76
2022/11/27 09:24:20;;;;;;;13.23;4.97;;;;;;;6.71;100.00;102087.88;5048248;28;20028;-75
2022/11/27 09:26:45;;;;;;;16.83;5.18;;;;;;;6.73;100.00;102089.44;5045463;28;20052;-77
2022/11/27 09:29:11;;;;;;;14.10;5.32;;;;;;;6.71;100.00;102088.75;5049811;28;20057;-77
2022/11/27 09:31:36;;;;;;;12.40;5.38;;;;;;;6.84;100.00;102083.00;5050623;28;20029;-76
2022/11/27 09:34:03;;;;;;;17.83;5.82;;;;;;;6.82;100.00;102085.00;5047111;28;20112;-76
2022/11/27 09:36:28;;;;;;;;;;;;;;;6.88;100.00;102089.91;5049937;28;20033;-77
2022/11/27 09:38:54;;;;;;;13.80;5.53;;;;;;;6.86;100.00;102081.00;5057879;28;20447;-77
2022/11/27 09:41:55;;;;;;;15.00;5.22;;;;;;;6.93;100.00;102082.13;5042574;28;20039;-77
2022/11/27 09:44:23;;;;;;;12.68;4.90;;;;;;;6.95;100.00;102080.16;5055659;28;20032;-78
2022/11/27 09:46:50;;;;;;;14.00;5.75;;;;;;;6.93;100.00;102065.78;5052134;28;20090;-78
2022/11/27 09:49:24;;;;;;;15.07;6.20;;;;;;;6.94;100.00;102067.53;5048368;28;20548;-76
2022/11/27 09:52:03;;;;;;;11.75;5.43;;;;;;;7.00;100.00;102058.78;5051933;28;20099;-78
2022/11/27 09:54:41;;;;;;;17.00;5.25;;;;;;;6.99;100.00;102063.38;5044677;28;20028;-78
2022/11/27 09:57:14;;;;;;;12.13;5.90;;;;;;;6.99;100.00;102062.53;5045661;28;20047;-76
2022/11/27 09:59:48;;;;;;;11.40;4.75;;;;;;;7.01;100.00;102060.50;5044052;28;20043;-77
2022/11/27 10:02:28;;;;;;;13.73;5.40;;;;;;;7.00;100.00;102056.06;5051245;28;20036;-77
2022/11/27 10:04:54;;;;;;;15.05;5.05;;;;;;;6.95;100.00;102048.31;5045724;28;20436;-76
2022/11/27 10:07:44;;;;;;;18.23;5.82;;;;;;;6.99;100.00;102049.75;5047750;28;20119;-77
2022/11/27 10:10:29;;;;;;;10.40;5.68;;;;;;;7.01;100.00;102035.97;5039726;28;20044;-77
2022/11/27 10:13:33;;;;;;;11.82;5.55;;;;;;;7.00;100.00;102053.34;5043971;28;20029;-77
2022/11/27 10:16:08;;;;;;;11.60;4.88;;;;;;;7.04;100.00;102043.88;5021350;28;20036;-76
2022/11/27 10:19:06;;;;;;;15.98;5.15;;;;;;;7.03;100.00;102044.84;5031804;28;20037;-79
2022/11/27 10:21:48;;;;;;;20.20;5.32;;;;;;;7.03;100.00;102036.69;4963351;28;20041;-78
2022/11/27 10:24:43;;;;;;;12.52;5.82;;;;;;;7.02;100.00;102034.97;5048094;28;20029;-75
2022/11/27 10:27:21;;;;;;;14.93;5.55;;;;;;;7.00;100.00;102029.66;5050215;28;20041;-76
2022/11/27 10:29:50;;;;;;;;;;;;;;;7.09;100.00;102025.22;5046296;28;20068;-76
2022/11/27 10:32:19;;;;;;;14.23;6.20;;;;;;;7.07;100.00;102019.94;5043510;28;19976;-75
2022/11/27 10:34:55;;;;;;;14.32;5.38;;;;;;;7.05;100.00;102016.47;5040769;28;20029;-77
2022/11/27 10:37:32;;;;;;;10.45;5.00;;;;;;;7.05;100.00;102007.47;5058400;28;20448;-77
2022/11/27 10:40:19;;;;;;;15.85;5.15;;;;;;;7.13;100.00;102004.84;5041860;28;20025;-76
2022/11/27 10:42:54;;;;;;;10.93;5.53;;;;;;;7.22;100.00;102014.88;5049806;28;20124;-77
2022/11/27 10:45:23;;;;;;;17.48;5.30;;;;;;;7.20;100.00;102009.56;5046676;28;20055;-78
2022/11/27 10:47:49;;;;;;;13.63;5.63;;;;;;;7.18;100.00;102000.69;5033204;28;20044;-77
2022/11/27 10:50:16;;;;;;;14.85;5.40;;;;;;;7.20;100.00;102004.13;5050481;28;20048;-77
2022/11/27 10:52:52;;;;;;;11.38;4.97;;;;;;;7.18;100.00;102005.25;5032773;28;20475;-77
2022/11/27 10:55:26;;;;;;;8.70;4.90;;;;;;;7.26;100.00;102005.41;5041620;28;20029;-76
2022/11/27 10:58:04;;;;;;;13.27;5.70;;;;;;;7.18;100.00;101995.25;5041201;28;20708;-75
2022/11/27 11:00:29;;;;;;;16.15;5.90;;;;;;;7.19;100.00;101986.06;5049909;28;20036;-77
2022/11/27 11:03:05;;;;;;;10.98;5.15;;;;;;;7.27;100.00;101979.88;5057154;28;20025;-77
2022/11/27 11:05:33;;;;;;;12.05;5.55;;;;;;;7.26;100.00;101970.81;5050350;28;20135;-77
2022/11/27 11:08:04;;;;;;;17.23;5.18;;;;;;;7.31;100.00;101970.41;5034349;28;20408;-77
2022/11/27 11:10:31;;;;;;;12.32;5.07;;;;;;;7.29;100.00;101965.09;5052356;28;20501;-77
2022/11/27 11:13:32;;;;;;;;;;;;;;;7.31;100.00;101963.06;5053354;28;20040;-77
2022/11/27 11:16:02;;;;;;;9.55;4.55;;;;;;;7.31;100.00;101956.75;5021218;28;19912;-77
2022/11/27 11:18:41;;;;;;;12.25;5.05;;;;;;;7.43;100.00;101955.56;5039641;28;20051;-78
2022/11/27 11:21:17;;;;;;;13.52;6.15;;;;;;;7.41;100.00;101955.72;5052097;28;20033;-76
2022/11/27 11:23:45;;;;;;;12.25;5.93;;;;;;;7.41;100.00;101960.28;5051280;28;20101;-76
2022/11/27 11:26:19;;;;;;;15.52;6.15;;;;;;;7.37;100.00;101958.88;5041821;28;20029;-75
2022/11/27 11:28:54;;;;;;;10.02;4.55;;;;;;;7.33;100.00;101949.28;5047934;28;20020;-77
2022/11/27 11:31:30;;;;;;;11.07;4.88;;;;;;;7.40;100.00;101944.94;5060996;28;20029;-74